createdAt,value
2018-05-10T00:02:14.063Z,11.20
2018-05-10T00:04:47.771Z,9.73
2018-05-10T00:07:22.091Z,9.13
2018-05-10T00:09:55.790Z,9.17
2018-05-10T00:12:29.302Z,7.20
2018-05-10T00:15:03.004Z,6.97
2018-05-10T00:17:36.715Z,9.17
2018-05-10T00:20:10.407Z,8.73
2018-05-10T00:22:44.706Z,9.90
2018-05-10T00:25:19.238Z,10.80
2018-05-10T00:27:52.883Z,11.63
2018-05-10T00:30:26.480Z,10.10
2018-05-10T00:33:00.127Z,9.37
2018-05-10T00:35:33.857Z,12.50
2018-05-10T00:38:07.432Z,11.90
2018-05-10T00:40:41.123Z,10.57
2018-05-10T00:43:14.863Z,8.43
2018-05-10T00:45:48.526Z,9.40
2018-05-10T00:48:22.272Z,11.50
2018-05-10T00:50:55.962Z,11.03
2018-05-10T00:53:29.550Z,8.90
2018-05-10T00:56:03.970Z,10.13
2018-05-10T00:58:37.895Z,13.67
2018-05-10T01:01:11.506Z,9.93
2018-05-10T01:03:45.322Z,13.37
2018-05-10T01:06:19.597Z,13.17
2018-05-10T01:08:53.526Z,10.47
2018-05-10T01:11:27.135Z,10.57
2018-05-10T01:14:00.940Z,11.73
2018-05-10T01:16:34.538Z,8.57
2018-05-10T01:19:08.347Z,8.20
2018-05-10T01:21:42.154Z,10.73
2018-05-10T01:24:16.667Z,10.67
2018-05-10T01:26:50.574Z,9.33
2018-05-10T01:29:24.387Z,7.40
2018-05-10T01:31:58.186Z,14.10
2018-05-10T01:34:31.848Z,15.43
2018-05-10T01:37:05.489Z,10.87
2018-05-10T01:39:39.058Z,7.83
2018-05-10T01:42:12.699Z,8.63
2018-05-10T01:44:46.303Z,10.47
2018-05-10T01:47:19.879Z,10.90
2018-05-10T01:49:53.454Z,9.07
2018-05-10T01:52:27.284Z,9.07
2018-05-10T01:55:01.002Z,10.63
2018-05-10T01:57:35.368Z,11.60
2018-05-10T02:00:08.855Z,13.97
2018-05-10T02:02:42.623Z,13.73
2018-05-10T02:05:17.140Z,13.70
2018-05-10T02:07:50.853Z,9.00
2018-05-10T02:10:25.474Z,10.77
2018-05-10T02:12:59.286Z,9.37
2018-05-10T02:15:33.573Z,11.13
2018-05-10T02:18:07.205Z,9.40
2018-05-10T02:20:40.903Z,9.40
2018-05-10T02:23:15.411Z,9.13
2018-05-10T02:25:48.998Z,10.17
2018-05-10T02:28:23.441Z,11.40
2018-05-10T02:30:57.151Z,11.13
2018-05-10T02:33:30.831Z,11.30
2018-05-10T02:36:05.248Z,9.10
2018-05-10T02:38:38.979Z,14.43
2018-05-10T02:41:13.602Z,10.27
2018-05-10T02:43:47.247Z,10.97
2018-05-10T02:46:21.011Z,12.20
2018-05-10T02:48:54.811Z,12.37
2018-05-10T02:51:28.491Z,10.63
2018-05-10T02:54:02.016Z,9.57
2018-05-10T02:56:36.309Z,10.13
2018-05-10T02:59:10.131Z,10.07
2018-05-10T03:01:44.542Z,10.23
2018-05-10T03:04:19.579Z,10.90
2018-05-10T03:06:53.363Z,9.47
2018-05-10T03:09:27.086Z,9.80
2018-05-10T03:12:00.773Z,12.80
2018-05-10T03:14:34.418Z,12.63
2018-05-10T03:17:08.106Z,8.50
2018-05-10T03:19:41.680Z,14.03
2018-05-10T03:22:16.126Z,10.70
2018-05-10T03:24:49.836Z,10.70
2018-05-10T03:27:23.534Z,8.40
2018-05-10T03:29:57.839Z,12.07
2018-05-10T03:32:31.422Z,9.67
2018-05-10T03:35:05.175Z,10.10
2018-05-10T03:37:39.577Z,10.63
2018-05-10T03:40:13.167Z,12.60
2018-05-10T03:42:46.683Z,9.50
2018-05-10T03:45:20.214Z,10.00
2018-05-10T03:47:53.843Z,12.13
2018-05-10T03:50:27.498Z,10.23
2018-05-10T03:53:01.059Z,13.50
2018-05-10T03:55:34.638Z,11.77
2018-05-10T03:58:08.279Z,12.63
2018-05-10T04:00:41.987Z,8.67
2018-05-10T04:03:51.060Z,8.80
2018-05-10T04:06:37.524Z,10.17
2018-05-10T04:09:23.004Z,12.67
2018-05-10T04:11:56.683Z,12.07
2018-05-10T04:14:31.109Z,12.70
2018-05-10T04:17:04.818Z,15.87
2018-05-10T04:19:38.639Z,10.33
2018-05-10T04:22:12.442Z,27.07
2018-05-10T04:24:46.242Z,17.97
2018-05-10T04:27:20.874Z,21.10
2018-05-10T04:29:54.475Z,27.70
2018-05-10T04:32:28.275Z,17.13
2018-05-10T04:35:02.153Z,13.17
2018-05-10T04:37:35.889Z,12.13
2018-05-10T04:40:09.488Z,13.90
2018-05-10T04:42:43.196Z,15.40
2018-05-10T04:45:16.767Z,26.00
2018-05-10T04:47:50.502Z,12.97
2018-05-10T04:50:24.513Z,9.13
2018-05-10T04:52:58.195Z,10.17
2018-05-10T04:55:31.814Z,10.50
2018-05-10T04:58:05.515Z,9.80
2018-05-10T05:00:39.319Z,30.33
2018-05-10T05:03:13.121Z,15.93
2018-05-10T05:05:46.926Z,11.40
2018-05-10T05:08:20.519Z,9.73
2018-05-10T05:10:54.005Z,8.87
2018-05-10T05:13:27.523Z,12.70
2018-05-10T05:16:01.123Z,11.47
2018-05-10T05:18:34.848Z,12.80
2018-05-10T05:21:08.416Z,11.47
2018-05-10T05:23:41.982Z,10.50
2018-05-10T05:26:15.741Z,14.90
2018-05-10T05:28:50.038Z,10.17
2018-05-10T05:31:23.972Z,11.60
2018-05-10T05:33:57.776Z,13.07
2018-05-10T05:36:31.444Z,9.23
2018-05-10T05:39:04.971Z,10.77
2018-05-10T05:41:38.562Z,14.13
2018-05-10T05:44:13.190Z,10.93
2018-05-10T05:46:46.994Z,13.70
2018-05-10T05:49:21.011Z,12.83
2018-05-10T05:51:55.015Z,12.67
2018-05-10T05:54:28.549Z,13.97
2018-05-10T05:57:02.088Z,9.13
2018-05-10T05:59:35.828Z,13.60
2018-05-10T06:02:09.419Z,11.27
2018-05-10T06:04:43.849Z,12.67
2018-05-10T06:07:18.121Z,13.93
2018-05-10T06:09:51.634Z,11.53
2018-05-10T06:12:25.258Z,9.87
2018-05-10T06:14:58.951Z,15.60
2018-05-10T06:17:32.514Z,10.83
2018-05-10T06:20:06.273Z,11.30
2018-05-10T06:22:40.690Z,12.87
2018-05-10T06:25:14.318Z,11.13
2018-05-10T06:27:47.831Z,11.63
2018-05-10T06:30:21.490Z,12.37
2018-05-10T06:32:55.099Z,13.23
2018-05-10T06:35:28.692Z,12.90
2018-05-10T06:38:02.979Z,18.17
2018-05-10T06:40:36.631Z,18.87
2018-05-10T06:43:10.180Z,22.13
2018-05-10T06:45:43.906Z,24.57
2018-05-10T06:48:17.577Z,34.73
2018-05-10T06:50:51.338Z,26.50
2018-05-10T06:53:24.922Z,26.93
2018-05-10T06:55:59.429Z,31.63
2018-05-10T06:58:33.131Z,37.13
2018-05-10T07:01:06.751Z,27.53
2018-05-10T07:03:41.370Z,30.63
2018-05-10T07:06:15.175Z,32.50
2018-05-10T07:08:48.782Z,28.63
2018-05-10T07:11:22.590Z,29.27
2018-05-10T07:13:56.391Z,27.83
2018-05-10T07:16:30.106Z,30.10
2018-05-10T07:19:03.711Z,32.93
2018-05-10T07:21:37.398Z,30.83
2018-05-10T07:24:10.990Z,32.07
2018-05-10T07:26:44.681Z,28.33
2018-05-10T07:29:18.610Z,35.57
2018-05-10T07:31:52.419Z,30.40
2018-05-10T07:34:26.219Z,27.83
2018-05-10T07:37:00.549Z,34.30
2018-05-10T07:39:35.882Z,24.00
2018-05-10T07:42:09.795Z,27.57
2018-05-10T07:44:44.108Z,23.33
2018-05-10T07:47:17.827Z,28.80
2018-05-10T07:49:51.458Z,25.07
2018-05-10T07:52:25.822Z,23.47
2018-05-10T07:54:59.739Z,28.30
2018-05-10T07:57:33.742Z,24.27
2018-05-10T08:00:07.370Z,24.67
2018-05-10T08:02:41.032Z,24.67
2018-05-10T08:05:14.608Z,33.27
2018-05-10T08:07:48.350Z,27.03
2018-05-10T08:10:22.075Z,32.83
2018-05-10T08:12:55.655Z,34.03
2018-05-10T08:15:29.222Z,37.33
2018-05-10T08:18:02.879Z,46.70
2018-05-10T08:20:36.636Z,50.17
2018-05-10T08:23:10.282Z,47.93
2018-05-10T08:25:43.974Z,59.93
2018-05-10T08:28:17.586Z,64.57
2018-05-10T08:30:51.387Z,65.47
2018-05-10T08:33:25.699Z,67.47
2018-05-10T08:36:00.214Z,73.10
2018-05-10T08:38:33.906Z,71.23
2018-05-10T08:41:07.495Z,72.27
2018-05-10T08:43:41.217Z,74.43
2018-05-10T08:46:14.831Z,67.77
2018-05-10T08:48:48.522Z,75.53
2018-05-10T08:51:22.042Z,73.27
2018-05-10T08:53:55.827Z,70.37
2018-05-10T08:56:29.639Z,74.33
2018-05-10T08:59:04.142Z,78.97
2018-05-10T09:01:38.073Z,75.17
2018-05-10T09:04:12.702Z,77.40
2018-05-10T09:06:46.503Z,74.50
2018-05-10T09:09:20.299Z,70.70
2018-05-10T09:11:54.594Z,77.30
2018-05-10T09:14:28.327Z,75.27
2018-05-10T09:17:02.953Z,73.87
2018-05-10T09:19:37.369Z,75.10
2018-05-10T09:22:11.171Z,74.93
2018-05-10T09:24:44.983Z,72.40
2018-05-10T09:27:19.483Z,68.50
2018-05-10T09:29:53.475Z,70.63
2018-05-10T09:32:27.221Z,72.57
2018-05-10T09:35:00.823Z,67.43
2018-05-10T09:37:34.423Z,69.83
2018-05-10T09:40:08.106Z,57.10
2018-05-10T09:42:41.826Z,57.00
2018-05-10T09:45:15.638Z,51.93
2018-05-10T09:47:49.299Z,53.10
2018-05-10T09:50:23.044Z,44.63
2018-05-10T09:52:56.643Z,47.23
2018-05-10T09:55:30.465Z,49.60
2018-05-10T09:58:04.241Z,46.53
2018-05-10T10:00:38.661Z,44.10
2018-05-10T10:03:12.477Z,48.77
2018-05-10T10:05:47.097Z,42.80
2018-05-10T10:08:20.770Z,43.90
2018-05-10T10:10:54.507Z,43.53
2018-05-10T10:13:28.023Z,40.50
2018-05-10T10:16:01.906Z,37.87
2018-05-10T10:18:37.152Z,40.13
2018-05-10T10:21:10.787Z,37.57
2018-05-10T10:23:44.558Z,39.63
2018-05-10T10:26:18.365Z,38.93
2018-05-10T10:28:51.979Z,40.27
2018-05-10T10:31:25.557Z,33.87
2018-05-10T10:33:59.187Z,37.40
2018-05-10T10:36:32.846Z,32.00
2018-05-10T10:39:06.362Z,32.53
2018-05-10T10:41:40.174Z,31.17
2018-05-10T10:44:13.943Z,31.47
2018-05-10T10:46:47.651Z,37.93
2018-05-10T10:49:22.198Z,29.67
2018-05-10T10:51:55.875Z,33.63
2018-05-10T10:54:29.694Z,28.17
2018-05-10T10:57:03.419Z,26.43
2018-05-10T10:59:37.019Z,28.10
2018-05-10T11:02:10.828Z,27.60
2018-05-10T11:04:44.622Z,26.43
2018-05-10T11:07:18.630Z,22.83
2018-05-10T11:09:52.311Z,21.37
2018-05-10T11:12:26.048Z,19.20
2018-05-10T11:14:59.784Z,20.13
2018-05-10T11:17:33.454Z,20.20
2018-05-10T11:20:08.575Z,21.87
2018-05-10T11:22:43.102Z,20.03
2018-05-10T11:25:17.418Z,21.57
2018-05-10T11:27:51.815Z,20.60
2018-05-10T11:30:25.346Z,20.63
2018-05-10T11:32:59.036Z,20.27
2018-05-10T11:35:32.755Z,18.90
2018-05-10T11:38:06.346Z,20.13
2018-05-10T11:40:40.163Z,18.67
2018-05-10T11:43:13.762Z,20.73
2018-05-10T11:45:47.589Z,22.90
2018-05-10T11:48:22.513Z,18.67
2018-05-10T11:50:56.933Z,20.00
2018-05-10T11:53:30.827Z,20.57
2018-05-10T11:56:04.622Z,21.50
2018-05-10T11:58:39.053Z,18.73
2018-05-10T12:01:13.352Z,21.47
2018-05-10T12:03:46.935Z,21.07
2018-05-10T12:06:20.572Z,17.63
2018-05-10T12:08:54.279Z,17.90
2018-05-10T12:11:28.690Z,17.27
2018-05-10T12:14:02.366Z,17.73
2018-05-10T12:16:35.903Z,16.27
2018-05-10T12:19:10.531Z,18.23
2018-05-10T12:21:44.326Z,15.40
2018-05-10T12:24:18.947Z,15.43
2018-05-10T12:26:53.434Z,16.33
2018-05-10T12:29:27.555Z,14.50
2018-05-10T12:32:02.096Z,12.50
2018-05-10T12:34:36.498Z,13.63
2018-05-10T12:37:10.431Z,12.77
2018-05-10T12:39:44.247Z,12.60
2018-05-10T12:42:18.072Z,13.70
2018-05-10T12:44:51.818Z,13.23
2018-05-10T12:47:26.140Z,12.00
2018-05-10T12:49:59.883Z,13.17
2018-05-10T12:52:33.495Z,13.40
2018-05-10T12:55:07.079Z,11.80
2018-05-10T12:57:41.486Z,10.63
2018-05-10T13:00:15.015Z,10.07
2018-05-10T13:02:48.769Z,9.10
2018-05-10T13:05:22.503Z,8.98
2018-05-10T13:07:56.919Z,10.73
2018-05-10T13:10:30.568Z,8.60
2018-05-10T13:13:04.191Z,7.33
2018-05-10T13:15:37.932Z,9.53
2018-05-10T13:18:11.614Z,8.90
2018-05-10T13:20:45.382Z,9.03
2018-05-10T13:23:19.091Z,10.43
2018-05-10T13:25:52.743Z,8.23
2018-05-10T13:28:26.339Z,8.10
2018-05-10T13:31:00.143Z,10.13
2018-05-10T13:33:33.632Z,10.57
2018-05-10T13:36:07.234Z,11.00
2018-05-10T13:38:41.156Z,7.70
2018-05-10T13:41:14.953Z,7.97
2018-05-10T13:43:48.647Z,7.73
2018-05-10T13:46:22.371Z,8.30
2018-05-10T13:48:56.651Z,8.93
2018-05-10T13:51:30.386Z,5.90
2018-05-10T13:54:03.991Z,11.33
2018-05-10T13:56:37.578Z,8.63
2018-05-10T13:59:11.266Z,8.87
2018-05-10T14:01:44.962Z,8.27
2018-05-10T14:04:18.670Z,5.50
2018-05-10T14:06:52.198Z,7.00
2018-05-10T14:09:25.996Z,6.30
2018-05-10T14:11:59.815Z,6.10
2018-05-10T14:14:34.234Z,5.37
2018-05-10T14:17:07.828Z,6.60
2018-05-10T14:19:42.247Z,7.03
2018-05-10T14:22:16.053Z,7.80
2018-05-10T14:24:49.858Z,6.80
2018-05-10T14:27:24.368Z,8.30
2018-05-10T14:29:58.083Z,6.30
2018-05-10T14:32:32.943Z,6.93
2018-05-10T14:35:06.516Z,9.10
2018-05-10T14:37:40.318Z,7.80
2018-05-10T14:40:13.991Z,9.70
2018-05-10T14:42:47.699Z,7.17
2018-05-10T14:45:21.327Z,6.70
2018-05-10T14:47:55.014Z,8.20
2018-05-10T14:50:29.407Z,7.43
2018-05-10T14:53:02.982Z,7.33
2018-05-10T14:55:37.367Z,8.63
2018-05-10T14:58:10.966Z,11.23
2018-05-10T15:00:45.254Z,11.40
2018-05-10T15:03:19.087Z,12.17
2018-05-10T15:05:53.486Z,11.27
2018-05-10T15:08:27.132Z,9.33
2018-05-10T15:11:00.814Z,7.63
2018-05-10T15:13:34.529Z,12.73
2018-05-10T15:16:08.226Z,11.47
2018-05-10T15:18:41.830Z,7.27
2018-05-10T15:21:15.426Z,8.77
2018-05-10T15:23:49.742Z,9.00
2018-05-10T15:26:23.439Z,7.77
2018-05-10T15:28:57.062Z,10.90
2018-05-10T15:31:30.734Z,9.97
2018-05-10T15:34:04.451Z,11.77
2018-05-10T15:36:38.020Z,8.83
2018-05-10T15:39:11.755Z,9.43
2018-05-10T15:41:45.940Z,8.93
2018-05-10T15:44:19.631Z,9.37
2018-05-10T15:46:53.156Z,10.37
2018-05-10T15:49:26.869Z,9.87
2018-05-10T15:52:00.682Z,9.07
2018-05-10T15:54:34.307Z,11.10
2018-05-10T15:57:08.090Z,10.93
2018-05-10T15:59:42.013Z,6.50
2018-05-10T16:02:15.707Z,7.37
2018-05-10T16:04:49.394Z,7.00
2018-05-10T16:07:23.054Z,7.87
2018-05-10T16:09:56.570Z,18.43
2018-05-10T16:12:30.143Z,20.97
2018-05-10T16:15:03.681Z,15.30
2018-05-10T16:17:37.202Z,13.50
2018-05-10T16:20:10.908Z,6.10
2018-05-10T16:22:45.328Z,6.83
2018-05-10T16:25:19.136Z,5.73
2018-05-10T16:27:53.758Z,8.33
2018-05-10T16:30:27.466Z,7.80
2018-05-10T16:33:01.167Z,6.50
2018-05-10T16:35:34.682Z,6.37
2018-05-10T16:38:09.185Z,8.87
2018-05-10T16:40:42.697Z,6.50
2018-05-10T16:43:16.216Z,7.33
2018-05-10T16:45:49.803Z,6.47
2018-05-10T16:48:23.399Z,6.17
2018-05-10T16:50:57.184Z,8.37
2018-05-10T16:53:30.955Z,7.40
2018-05-10T16:56:04.559Z,7.80
2018-05-10T16:58:38.083Z,6.17
2018-05-10T17:01:11.796Z,8.97
2018-05-10T17:03:45.296Z,7.50
2018-05-10T17:06:18.812Z,9.23
2018-05-10T17:08:52.403Z,10.57
2018-05-10T17:11:26.173Z,6.67
2018-05-10T17:13:59.706Z,6.27
2018-05-10T17:16:33.410Z,5.20
2018-05-10T17:19:08.035Z,4.07
2018-05-10T17:21:41.701Z,6.97
2018-05-10T17:24:15.427Z,5.57
2018-05-10T17:26:49.243Z,5.40
2018-05-10T17:29:22.981Z,4.97
2018-05-10T17:31:56.642Z,6.87
2018-05-10T17:34:30.930Z,8.43
2018-05-10T17:37:04.494Z,6.27
2018-05-10T17:39:38.063Z,7.77
2018-05-10T17:42:12.379Z,7.47
2018-05-10T17:44:46.287Z,5.83
2018-05-10T17:47:19.825Z,7.30
2018-05-10T17:49:53.562Z,6.13
2018-05-10T17:52:27.183Z,7.93
2018-05-10T17:55:00.892Z,7.07
2018-05-10T17:57:34.460Z,7.90
2018-05-10T18:00:08.293Z,9.37
2018-05-10T18:02:41.908Z,9.37
2018-05-10T18:05:15.507Z,7.13
2018-05-10T18:07:49.923Z,6.10
2018-05-10T18:10:23.594Z,9.07
2018-05-10T18:12:57.190Z,4.40
2018-05-10T18:15:30.723Z,4.20
2018-05-10T18:18:04.322Z,5.80
2018-05-10T18:20:38.132Z,7.43
2018-05-10T18:23:11.987Z,4.50
2018-05-10T18:25:46.435Z,6.57
2018-05-10T18:28:20.869Z,7.57
2018-05-10T18:30:54.590Z,4.50
2018-05-10T18:33:28.321Z,3.90
2018-05-10T18:36:02.083Z,3.50
2018-05-10T18:38:35.799Z,9.33
2018-05-10T18:41:09.467Z,6.37
2018-05-10T18:43:42.998Z,4.13
2018-05-10T18:46:16.806Z,7.33
2018-05-10T18:48:50.630Z,4.40
2018-05-10T18:51:24.158Z,4.23
2018-05-10T18:53:57.806Z,6.03
2018-05-10T18:56:31.406Z,3.37
2018-05-10T18:59:05.242Z,4.90
2018-05-10T19:01:38.819Z,6.97
2018-05-10T19:04:12.626Z,8.07
2018-05-10T19:06:46.910Z,5.73
2018-05-10T19:09:20.842Z,7.63
2018-05-10T19:11:54.523Z,11.03
2018-05-10T19:14:28.258Z,6.77
2018-05-10T19:17:02.651Z,3.67
2018-05-10T19:19:37.095Z,6.93
2018-05-10T19:22:10.762Z,9.70
2018-05-10T19:24:44.294Z,6.13
2018-05-10T19:27:18.920Z,9.13
2018-05-10T19:29:52.722Z,5.70
2018-05-10T19:32:26.334Z,4.50
2018-05-10T19:34:59.923Z,5.80
2018-05-10T19:37:34.554Z,7.33
2018-05-10T19:40:08.356Z,6.50
2018-05-10T19:42:42.364Z,7.47
2018-05-10T19:45:16.216Z,6.63
2018-05-10T19:47:49.979Z,5.90
2018-05-10T19:50:23.604Z,8.93
2018-05-10T19:52:57.295Z,6.00
2018-05-10T19:55:30.836Z,7.70
2018-05-10T19:58:04.327Z,6.37
2018-05-10T20:00:37.991Z,7.13
2018-05-10T20:03:11.583Z,8.00
2018-05-10T20:05:45.390Z,9.20
2018-05-10T20:08:18.912Z,5.83
2018-05-10T20:10:52.480Z,10.00
2018-05-10T20:13:26.060Z,8.30
2018-05-10T20:15:59.562Z,6.33
2018-05-10T20:18:33.072Z,8.37
2018-05-10T20:21:06.732Z,11.10
2018-05-10T20:23:43.746Z,4.27
2018-05-10T20:26:17.495Z,5.73
2018-05-10T20:28:51.033Z,8.87
2018-05-10T20:31:24.671Z,6.67
2018-05-10T20:33:58.185Z,5.60
2018-05-10T20:36:31.780Z,11.73
2018-05-10T20:39:05.318Z,6.30
2018-05-10T20:41:40.585Z,10.70
2018-05-10T20:44:14.106Z,6.93
2018-05-10T20:46:47.626Z,4.40
2018-05-10T20:49:21.999Z,6.50
2018-05-10T20:51:55.943Z,9.03
2018-05-10T20:54:29.430Z,5.90
2018-05-10T20:57:03.139Z,5.20
2018-05-10T20:59:36.642Z,6.73
2018-05-10T21:02:10.334Z,5.57
2018-05-10T21:04:43.942Z,5.87
2018-05-10T21:07:17.543Z,5.73
2018-05-10T21:09:51.215Z,8.67
2018-05-10T21:12:47.691Z,8.47
2018-05-10T21:15:21.367Z,8.67
2018-05-10T21:17:55.097Z,8.37
2018-05-10T21:20:29.595Z,10.40
2018-05-10T21:23:03.399Z,5.83
2018-05-10T21:25:37.598Z,4.83
2018-05-10T21:28:11.360Z,6.10
2018-05-10T21:30:44.834Z,7.57
2018-05-10T21:33:18.535Z,6.80
2018-05-10T21:35:52.139Z,7.67
2018-05-10T21:38:25.943Z,7.13
2018-05-10T21:40:59.748Z,7.50
2018-05-10T21:43:33.271Z,6.73
2018-05-10T21:46:06.824Z,8.03
2018-05-10T21:48:41.258Z,6.67
2018-05-10T21:51:14.867Z,6.53
2018-05-10T21:53:48.451Z,6.60
2018-05-10T21:56:22.053Z,9.30
2018-05-10T21:58:55.655Z,6.93
2018-05-10T22:01:29.454Z,9.50
2018-05-10T22:04:03.181Z,9.23
2018-05-10T22:06:36.683Z,9.93
2018-05-10T22:09:10.417Z,12.13
2018-05-10T22:11:44.012Z,7.17
2018-05-10T22:14:17.811Z,5.77
2018-05-10T22:16:51.458Z,8.50
2018-05-10T22:19:25.091Z,11.97
2018-05-10T22:21:58.674Z,11.23
2018-05-10T22:24:32.468Z,10.53
2018-05-10T22:27:06.690Z,12.40
2018-05-10T22:29:40.389Z,12.60
2018-05-10T22:32:13.883Z,11.80
2018-05-10T22:34:47.515Z,12.33
2018-05-10T22:37:21.121Z,8.20
2018-05-10T22:39:54.704Z,8.83
2018-05-10T22:42:28.282Z,8.27
2018-05-10T22:45:02.092Z,5.83
2018-05-10T22:47:35.650Z,8.13
2018-05-10T22:50:10.115Z,7.80
2018-05-10T22:52:43.795Z,9.33
2018-05-10T22:55:17.460Z,8.17
2018-05-10T22:57:51.766Z,7.90
2018-05-10T23:00:25.463Z,5.70
2018-05-10T23:02:59.778Z,8.67
2018-05-10T23:05:33.698Z,8.80
2018-05-10T23:08:07.294Z,10.40
2018-05-10T23:10:41.112Z,7.50
2018-05-10T23:13:15.738Z,8.40
2018-05-10T23:15:49.398Z,5.80
2018-05-10T23:18:23.222Z,6.10
2018-05-10T23:20:56.945Z,8.23
2018-05-10T23:23:30.539Z,8.30
2018-05-10T23:26:04.019Z,6.97
2018-05-10T23:28:37.618Z,8.20
2018-05-10T23:31:11.347Z,7.13
2018-05-10T23:33:45.034Z,8.80
2018-05-10T23:36:18.547Z,9.17
2018-05-10T23:38:52.236Z,7.93
2018-05-10T23:41:25.818Z,8.30
2018-05-10T23:43:59.553Z,9.27
2018-05-10T23:46:33.230Z,9.47
2018-05-10T23:49:06.962Z,10.93
2018-05-10T23:51:40.570Z,7.87
2018-05-10T23:54:14.143Z,8.53
2018-05-10T23:56:47.764Z,8.07
2018-05-10T23:59:21.476Z,8.70
